createdAt,value
2023-05-15T00:00:54.588Z,4.57
2023-05-15T00:03:23.991Z,3.95
2023-05-15T00:05:52.496Z,3.22
2023-05-15T00:08:20.528Z,4.13
2023-05-15T00:11:00.848Z,4.45
2023-05-15T00:13:29.834Z,3.90
2023-05-15T00:15:57.845Z,3.70
2023-05-15T00:18:27.583Z,4.18
2023-05-15T00:20:56.102Z,3.53
2023-05-15T00:23:23.972Z,3.85
2023-05-15T00:25:51.933Z,3.75
2023-05-15T00:28:19.779Z,4.20
2023-05-15T00:30:47.673Z,4.50
2023-05-15T00:33:15.737Z,5.05
2023-05-15T00:35:46.162Z,4.80
2023-05-15T00:38:14.011Z,5.60
2023-05-15T00:40:42.452Z,5.00
2023-05-15T00:43:11.085Z,6.15
2023-05-15T00:45:40.258Z,5.97
2023-05-15T00:48:08.769Z,5.70
2023-05-15T00:50:36.894Z,6.95
2023-05-15T00:53:07.446Z,5.40
2023-05-15T00:55:35.479Z,6.07
2023-05-15T00:58:05.163Z,6.50
2023-05-15T01:00:33.632Z,5.95
2023-05-15T01:03:01.936Z,6.30
2023-05-15T01:05:30.282Z,6.72
2023-05-15T01:08:02.514Z,5.95
2023-05-15T01:10:31.956Z,5.93
2023-05-15T01:13:00.484Z,6.60
2023-05-15T01:15:28.438Z,5.28
2023-05-15T01:17:56.474Z,5.90
2023-05-15T01:20:24.763Z,6.25
2023-05-15T01:23:00.666Z,5.32
2023-05-15T01:25:46.150Z,5.70
2023-05-15T01:28:17.896Z,6.10
2023-05-15T01:30:47.795Z,5.97
2023-05-15T01:33:19.169Z,5.93
2023-05-15T01:35:52.264Z,5.50
2023-05-15T01:38:23.646Z,5.07
2023-05-15T01:40:58.011Z,6.45
2023-05-15T01:43:29.565Z,5.15
2023-05-15T01:45:58.277Z,5.72
2023-05-15T01:48:26.787Z,6.00
2023-05-15T01:51:01.194Z,6.80
2023-05-15T01:53:29.584Z,6.80
2023-05-15T01:55:58.052Z,6.93
2023-05-15T01:58:29.293Z,8.07
2023-05-15T02:00:57.839Z,7.88
2023-05-15T02:03:26.099Z,7.18
2023-05-15T02:05:56.652Z,7.45
2023-05-15T02:08:29.133Z,6.80
2023-05-15T02:10:58.008Z,6.13
2023-05-15T02:13:26.440Z,6.85
2023-05-15T02:15:57.343Z,5.93
2023-05-15T02:18:28.523Z,6.32
2023-05-15T02:21:01.046Z,5.47
2023-05-15T02:23:28.899Z,6.57
2023-05-15T02:26:06.027Z,6.07
2023-05-15T02:28:37.221Z,7.38
2023-05-15T02:31:09.308Z,6.03
2023-05-15T02:33:42.114Z,6.72
2023-05-15T02:36:12.381Z,6.57
2023-05-15T02:38:41.928Z,6.80
2023-05-15T02:41:11.111Z,6.50
2023-05-15T02:43:40.265Z,6.60
2023-05-15T02:46:09.772Z,7.50
2023-05-15T02:48:39.089Z,7.20
2023-05-15T02:51:08.482Z,7.40
2023-05-15T02:53:40.440Z,6.68
2023-05-15T02:56:08.436Z,6.88
2023-05-15T02:58:36.459Z,6.53
2023-05-15T03:01:04.735Z,7.30
2023-05-15T03:03:34.185Z,7.07
2023-05-15T03:06:02.162Z,6.95
2023-05-15T03:08:30.038Z,7.43
2023-05-15T03:10:58.403Z,6.78
2023-05-15T03:13:26.446Z,6.95
2023-05-15T03:15:54.969Z,6.93
2023-05-15T03:18:22.985Z,6.95
2023-05-15T03:20:53.988Z,7.60
2023-05-15T03:23:21.936Z,8.15
2023-05-15T03:25:50.062Z,7.05
2023-05-15T03:28:17.994Z,7.00
2023-05-15T03:30:45.870Z,8.18
2023-05-15T03:33:14.483Z,9.02
2023-05-15T03:35:42.656Z,9.25
2023-05-15T03:38:14.150Z,8.40
2023-05-15T03:40:42.020Z,10.85
2023-05-15T03:43:09.949Z,9.50
2023-05-15T03:45:37.942Z,8.70
2023-05-15T03:48:06.357Z,8.25
2023-05-15T03:50:34.678Z,7.95
2023-05-15T03:53:03.833Z,7.60
2023-05-15T03:55:33.207Z,8.93
2023-05-15T03:58:01.250Z,9.05
2023-05-15T04:00:29.224Z,8.60
2023-05-15T04:02:57.172Z,8.43
2023-05-15T04:05:25.608Z,8.88
2023-05-15T04:07:53.747Z,8.25
2023-05-15T04:10:22.417Z,8.07
2023-05-15T04:12:51.995Z,8.30
2023-05-15T04:15:20.593Z,8.10
2023-05-15T04:17:49.362Z,7.93
2023-05-15T04:20:19.162Z,8.95
2023-05-15T04:22:47.178Z,8.63
2023-05-15T04:25:16.229Z,9.27
2023-05-15T04:27:44.812Z,8.68
2023-05-15T04:30:14.533Z,10.10
2023-05-15T04:32:42.461Z,13.07
2023-05-15T04:35:12.421Z,26.83
2023-05-15T04:37:41.969Z,12.52
2023-05-15T04:40:10.715Z,10.98
2023-05-15T04:42:39.399Z,9.57
2023-05-15T04:45:08.277Z,11.73
2023-05-15T04:47:37.655Z,10.65
2023-05-15T04:50:06.621Z,11.90
2023-05-15T04:52:34.624Z,12.02
2023-05-15T04:55:02.525Z,12.70
2023-05-15T04:57:32.957Z,12.07
2023-05-15T05:00:00.828Z,12.43
2023-05-15T05:02:28.763Z,12.98
2023-05-15T05:04:58.441Z,12.60
2023-05-15T05:07:26.317Z,12.73
2023-05-15T05:09:54.440Z,13.30
2023-05-15T05:12:22.326Z,13.48
2023-05-15T05:14:50.374Z,11.95
2023-05-15T05:17:18.536Z,11.63
2023-05-15T05:19:47.635Z,11.38
2023-05-15T05:22:16.954Z,11.45
2023-05-15T05:24:44.837Z,11.50
2023-05-15T05:27:12.839Z,11.68
2023-05-15T05:29:41.064Z,12.05
2023-05-15T05:32:09.144Z,11.00
2023-05-15T05:34:37.673Z,12.05
2023-05-15T05:37:06.352Z,11.32
2023-05-15T05:39:36.261Z,10.73
2023-05-15T05:42:04.253Z,11.15
2023-05-15T05:44:32.353Z,11.00
2023-05-15T05:47:00.400Z,10.85
2023-05-15T05:49:28.320Z,11.85
2023-05-15T05:51:56.366Z,11.15
2023-05-15T05:54:24.211Z,10.27
2023-05-15T05:56:53.429Z,10.02
2023-05-15T05:59:21.616Z,9.98
2023-05-15T06:01:51.044Z,10.23
2023-05-15T06:04:21.220Z,9.75
2023-05-15T06:06:50.236Z,10.77
2023-05-15T06:09:18.276Z,8.95
2023-05-15T06:11:46.572Z,9.32
2023-05-15T06:14:15.867Z,9.57
2023-05-15T06:16:44.056Z,10.48
2023-05-15T06:19:12.394Z,10.52
2023-05-15T06:21:40.421Z,9.93
2023-05-15T06:24:09.005Z,9.90
2023-05-15T06:26:37.542Z,10.80
2023-05-15T06:29:05.471Z,10.05
2023-05-15T06:31:34.899Z,10.88
2023-05-15T06:34:03.011Z,10.07
2023-05-15T06:36:31.534Z,9.32
2023-05-15T06:38:59.476Z,9.43
2023-05-15T06:41:27.492Z,11.82
2023-05-15T06:43:56.166Z,10.82
2023-05-15T06:46:37.935Z,10.65
2023-05-15T06:49:07.320Z,11.55
2023-05-15T06:51:35.152Z,10.20
2023-05-15T06:54:03.016Z,9.55
2023-05-15T06:56:30.976Z,9.90
2023-05-15T06:58:58.887Z,11.15
2023-05-15T07:01:26.881Z,9.93
2023-05-15T07:03:55.388Z,9.15
2023-05-15T07:06:27.123Z,7.75
2023-05-15T07:08:55.487Z,7.68
2023-05-15T07:11:23.355Z,7.13
2023-05-15T07:13:52.600Z,8.75
2023-05-15T07:16:20.718Z,9.43
2023-05-15T07:18:51.317Z,8.75
2023-05-15T07:21:19.380Z,8.48
2023-05-15T07:23:48.617Z,8.07
2023-05-15T07:26:23.759Z,8.15
2023-05-15T07:28:59.488Z,8.10
2023-05-15T07:31:31.302Z,7.43
2023-05-15T07:33:59.235Z,8.55
2023-05-15T07:36:27.105Z,7.07
2023-05-15T07:38:57.060Z,7.63
2023-05-15T07:41:25.167Z,7.47
2023-05-15T07:43:53.078Z,8.73
2023-05-15T07:46:21.643Z,7.10
2023-05-15T07:48:49.715Z,7.30
2023-05-15T07:51:17.710Z,5.88
2023-05-15T07:53:45.713Z,8.43
2023-05-15T07:56:15.197Z,9.35
2023-05-15T07:58:43.110Z,7.10
2023-05-15T08:01:11.578Z,6.53
2023-05-15T08:03:39.453Z,8.13
2023-05-15T08:06:08.456Z,7.72
2023-05-15T08:08:36.453Z,9.30
2023-05-15T08:11:04.468Z,7.55
2023-05-15T08:13:33.795Z,8.43
2023-05-15T08:16:01.769Z,7.75
2023-05-15T08:18:29.664Z,8.60
2023-05-15T08:20:57.614Z,9.23
2023-05-15T08:23:25.555Z,9.43
2023-05-15T08:25:53.830Z,9.43
2023-05-15T08:28:22.109Z,9.73
2023-05-15T08:30:51.387Z,9.85
2023-05-15T08:33:19.271Z,8.65
2023-05-15T08:35:47.513Z,10.25
2023-05-15T08:38:17.773Z,10.40
2023-05-15T08:40:48.373Z,8.65
2023-05-15T08:43:17.727Z,9.82
2023-05-15T08:45:45.771Z,9.77
2023-05-15T08:48:17.418Z,10.07
2023-05-15T08:50:46.032Z,9.90
2023-05-15T08:53:14.357Z,9.40
2023-05-15T08:55:42.751Z,9.43
2023-05-15T08:58:10.736Z,8.05
2023-05-15T09:00:39.036Z,8.90
2023-05-15T09:03:06.937Z,8.10
2023-05-15T09:05:38.061Z,8.10
2023-05-15T09:08:08.174Z,7.88
2023-05-15T09:10:37.299Z,6.53
2023-05-15T09:13:06.168Z,6.78
2023-05-15T09:15:34.383Z,5.25
2023-05-15T09:18:02.756Z,4.80
2023-05-15T09:20:34.607Z,5.38
2023-05-15T09:23:05.384Z,4.55
2023-05-15T09:25:34.594Z,5.32
2023-05-15T09:28:05.560Z,5.00
2023-05-15T09:30:34.844Z,3.85
2023-05-15T09:33:03.928Z,4.47
2023-05-15T09:35:36.109Z,3.78
2023-05-15T09:38:06.193Z,3.67
2023-05-15T09:40:34.121Z,3.70
2023-05-15T09:43:02.424Z,4.10
2023-05-15T09:45:33.558Z,3.10
2023-05-15T09:48:02.598Z,4.07
2023-05-15T09:50:34.675Z,3.40
2023-05-15T09:53:02.895Z,2.55
2023-05-15T09:55:34.377Z,2.78
2023-05-15T09:58:06.604Z,3.53
2023-05-15T10:00:48.455Z,3.55
2023-05-15T10:03:21.162Z,3.60
2023-05-15T10:05:49.274Z,3.42
2023-05-15T10:08:17.584Z,3.47
2023-05-15T10:10:47.313Z,3.63
2023-05-15T10:13:15.272Z,2.90
2023-05-15T10:15:44.422Z,3.17
2023-05-15T10:18:12.985Z,2.90
2023-05-15T10:20:41.040Z,3.03
2023-05-15T10:23:12.644Z,2.97
2023-05-15T10:25:43.058Z,3.13
2023-05-15T10:28:13.121Z,2.88
2023-05-15T10:30:41.159Z,2.55
2023-05-15T10:33:09.628Z,2.55
2023-05-15T10:35:39.295Z,3.25
2023-05-15T10:38:10.248Z,2.80
2023-05-15T10:40:38.893Z,2.42
2023-05-15T10:43:06.887Z,2.95
2023-05-15T10:45:36.506Z,2.40
2023-05-15T10:48:07.844Z,4.18
2023-05-15T10:50:38.444Z,3.67
2023-05-15T10:53:06.713Z,2.30
2023-05-15T10:55:34.637Z,1.80
2023-05-15T10:58:02.975Z,1.80
2023-05-15T11:00:32.433Z,1.48
2023-05-15T11:03:04.243Z,1.60
2023-05-15T11:05:52.561Z,1.20
2023-05-15T11:08:32.541Z,1.10
2023-05-15T11:11:00.495Z,1.33
2023-05-15T11:13:29.706Z,1.70
2023-05-15T11:15:58.417Z,1.83
2023-05-15T11:18:30.080Z,1.20
2023-05-15T11:21:08.335Z,1.27
2023-05-15T11:23:40.125Z,1.83
2023-05-15T11:26:08.218Z,1.50
2023-05-15T11:28:42.886Z,2.13
2023-05-15T11:31:10.968Z,1.92
2023-05-15T11:33:41.732Z,1.90
2023-05-15T11:36:09.887Z,1.95
2023-05-15T11:38:38.855Z,1.52
2023-05-15T11:41:18.288Z,1.20
2023-05-15T11:43:46.883Z,1.48
2023-05-15T11:46:15.255Z,1.10
2023-05-15T11:48:47.857Z,1.50
2023-05-15T11:51:22.545Z,1.35
2023-05-15T11:53:51.223Z,1.30
2023-05-15T11:56:19.661Z,1.50
2023-05-15T11:58:49.865Z,1.15
2023-05-15T12:01:18.226Z,1.13
2023-05-15T12:03:50.285Z,1.20
2023-05-15T12:06:19.130Z,1.02
2023-05-15T12:08:52.059Z,1.30
2023-05-15T12:11:24.457Z,0.98
2023-05-15T12:13:52.853Z,1.35
2023-05-15T12:16:24.410Z,1.27
2023-05-15T12:18:54.708Z,1.45
2023-05-15T12:21:22.938Z,1.40
2023-05-15T12:24:03.384Z,1.25
2023-05-15T12:26:35.067Z,1.25
2023-05-15T12:29:03.620Z,1.48
2023-05-15T12:31:31.919Z,1.20
2023-05-15T12:34:02.164Z,1.27
2023-05-15T12:36:31.127Z,1.08
2023-05-15T12:38:58.991Z,1.40
2023-05-15T12:41:30.280Z,1.33
2023-05-15T12:44:01.229Z,2.00
2023-05-15T12:46:31.928Z,1.80
2023-05-15T12:49:01.746Z,1.60
2023-05-15T12:51:30.231Z,1.77
2023-05-15T12:53:59.028Z,2.08
2023-05-15T12:56:27.113Z,1.60
2023-05-15T12:58:57.162Z,1.42
2023-05-15T13:01:25.292Z,1.48
2023-05-15T13:03:54.761Z,1.30
2023-05-15T13:06:38.352Z,1.40
2023-05-15T13:09:13.489Z,1.63
2023-05-15T13:11:44.558Z,1.40
2023-05-15T13:14:17.752Z,2.00
2023-05-15T13:16:46.846Z,1.80
2023-05-15T13:19:15.893Z,1.50
2023-05-15T13:21:46.289Z,1.73
2023-05-15T13:24:21.682Z,1.60
2023-05-15T13:26:49.565Z,1.48
2023-05-15T13:29:17.498Z,1.63
2023-05-15T13:31:45.647Z,1.70
2023-05-15T13:34:13.981Z,1.60
2023-05-15T13:36:42.044Z,1.55
2023-05-15T13:39:11.352Z,1.50
2023-05-15T13:41:39.322Z,1.90
2023-05-15T13:44:07.329Z,1.38
2023-05-15T13:46:37.801Z,1.27
2023-05-15T13:49:07.075Z,1.40
2023-05-15T13:51:35.782Z,1.30
2023-05-15T13:54:03.857Z,1.05
2023-05-15T13:56:33.447Z,2.85
2023-05-15T13:59:04.242Z,6.95
2023-05-15T14:01:32.176Z,1.90
2023-05-15T14:04:00.115Z,2.33
2023-05-15T14:06:28.715Z,5.68
2023-05-15T14:08:57.270Z,1.88
2023-05-15T14:11:27.990Z,1.50
2023-05-15T14:13:57.487Z,2.05
2023-05-15T14:16:25.425Z,1.88
2023-05-15T14:18:53.613Z,1.67
2023-05-15T14:21:22.072Z,1.52
2023-05-15T14:23:49.881Z,1.40
2023-05-15T14:26:18.681Z,1.35
2023-05-15T14:28:47.166Z,1.23
2023-05-15T14:31:16.666Z,1.40
2023-05-15T14:33:44.966Z,1.60
2023-05-15T14:36:13.546Z,1.83
2023-05-15T14:38:45.521Z,2.55
2023-05-15T14:41:13.826Z,2.33
2023-05-15T14:43:42.650Z,2.38
2023-05-15T14:46:11.528Z,3.03
2023-05-15T14:48:41.080Z,2.90
2023-05-15T14:51:09.998Z,2.95
2023-05-15T14:53:37.971Z,2.72
2023-05-15T14:56:07.150Z,2.90
2023-05-15T14:58:35.130Z,3.35
2023-05-15T15:01:03.769Z,5.20
2023-05-15T15:03:33.355Z,4.53
2023-05-15T15:06:04.212Z,2.75
2023-05-15T15:08:32.085Z,2.65
2023-05-15T15:11:00.036Z,3.10
2023-05-15T15:13:29.816Z,3.40
2023-05-15T15:15:58.044Z,3.50
2023-05-15T15:18:26.384Z,2.42
2023-05-15T15:20:54.446Z,2.70
2023-05-15T15:23:24.014Z,3.15
2023-05-15T15:25:51.873Z,2.85
2023-05-15T15:28:22.633Z,3.13
2023-05-15T15:30:50.666Z,2.58
2023-05-15T15:33:19.313Z,2.95
2023-05-15T15:35:47.350Z,3.50
2023-05-15T15:38:15.180Z,3.30
2023-05-15T15:40:44.550Z,3.28
2023-05-15T15:43:12.620Z,3.30
2023-05-15T15:45:40.608Z,6.10
2023-05-15T15:48:08.675Z,4.68
2023-05-15T15:50:36.681Z,3.75
2023-05-15T15:53:04.768Z,3.45
2023-05-15T15:55:40.948Z,2.90
2023-05-15T15:58:12.698Z,2.50
2023-05-15T16:00:41.300Z,3.10
2023-05-15T16:03:11.886Z,3.22
2023-05-15T16:05:39.915Z,3.25
2023-05-15T16:08:07.834Z,3.47
2023-05-15T16:10:35.738Z,3.30
2023-05-15T16:13:03.880Z,2.72
2023-05-15T16:15:57.113Z,2.25
2023-05-15T16:18:25.176Z,2.05
2023-05-15T16:20:53.538Z,2.50
2023-05-15T16:23:47.611Z,1.88
2023-05-15T16:26:15.821Z,3.67
2023-05-15T16:28:43.772Z,5.15
2023-05-15T16:31:13.238Z,4.82
2023-05-15T16:33:41.270Z,5.45
2023-05-15T16:36:09.994Z,5.47
2023-05-15T16:38:37.852Z,3.97
2023-05-15T16:41:05.924Z,4.78
2023-05-15T16:43:33.997Z,4.25
2023-05-15T16:46:02.236Z,4.57
2023-05-15T16:48:31.685Z,3.25
2023-05-15T16:51:00.258Z,3.42
2023-05-15T16:53:29.331Z,3.53
2023-05-15T16:55:57.586Z,3.00
2023-05-15T16:58:25.567Z,3.35
2023-05-15T17:00:59.750Z,3.60
2023-05-15T17:03:28.031Z,2.83
2023-05-15T17:06:00.406Z,2.65
2023-05-15T17:08:37.036Z,2.90
2023-05-15T17:11:08.254Z,3.25
2023-05-15T17:13:36.169Z,3.60
2023-05-15T17:16:07.167Z,3.80
2023-05-15T17:18:35.242Z,3.95
2023-05-15T17:21:04.820Z,2.80
2023-05-15T17:23:32.764Z,2.40
2023-05-15T17:26:01.066Z,2.10
2023-05-15T17:28:28.991Z,1.98
2023-05-15T17:30:57.528Z,2.28
2023-05-15T17:33:25.572Z,2.47
2023-05-15T17:35:54.170Z,17.90
2023-05-15T17:38:23.677Z,13.68
2023-05-15T17:40:54.565Z,4.50
2023-05-15T17:43:23.654Z,4.97
2023-05-15T17:45:51.936Z,6.10
2023-05-15T17:48:19.871Z,6.10
2023-05-15T17:50:48.168Z,5.97
2023-05-15T17:53:18.112Z,5.55
2023-05-15T17:55:47.926Z,4.85
2023-05-15T17:58:15.923Z,7.53
2023-05-15T18:00:44.657Z,6.50
2023-05-15T18:03:12.770Z,3.15
2023-05-15T18:05:42.170Z,2.45
2023-05-15T18:08:10.339Z,5.38
2023-05-15T18:10:38.350Z,6.75
2023-05-15T18:13:09.155Z,5.15
2023-05-15T18:15:37.123Z,3.08
2023-05-15T18:18:05.517Z,3.40
2023-05-15T18:20:33.467Z,3.00
2023-05-15T18:23:01.402Z,2.22
2023-05-15T18:25:29.327Z,4.10
2023-05-15T18:27:57.731Z,2.35
2023-05-15T18:30:27.027Z,2.30
2023-05-15T18:32:55.222Z,1.90
2023-05-15T18:35:24.266Z,2.00
2023-05-15T18:37:52.361Z,2.58
2023-05-15T18:40:20.929Z,2.15
2023-05-15T18:42:51.673Z,1.90
2023-05-15T18:45:22.067Z,2.10
2023-05-15T18:47:52.038Z,1.80
2023-05-15T18:50:21.838Z,2.10
2023-05-15T18:52:50.309Z,2.25
2023-05-15T18:55:18.259Z,2.10
2023-05-15T18:57:46.329Z,1.90
2023-05-15T19:00:18.911Z,2.35
2023-05-15T19:02:54.347Z,2.28
2023-05-15T19:05:22.546Z,2.60
2023-05-15T19:07:50.429Z,2.10
2023-05-15T19:10:18.382Z,3.03
2023-05-15T19:12:46.430Z,4.40
2023-05-15T19:15:16.986Z,2.80
2023-05-15T19:17:46.101Z,2.63
2023-05-15T19:20:16.338Z,2.53
2023-05-15T19:22:44.356Z,2.70
2023-05-15T19:25:12.567Z,2.65
2023-05-15T19:27:40.519Z,2.55
2023-05-15T19:30:09.566Z,23.40
2023-05-15T19:32:37.856Z,14.00
2023-05-15T19:35:06.520Z,23.15
2023-05-15T19:37:36.434Z,11.55
2023-05-15T19:40:05.885Z,6.18
2023-05-15T19:42:33.797Z,6.45
2023-05-15T19:45:04.870Z,4.63
2023-05-15T19:47:32.787Z,6.43
2023-05-15T19:50:00.688Z,5.30
2023-05-15T19:52:30.778Z,3.90
2023-05-15T19:55:01.225Z,4.35
2023-05-15T19:57:29.072Z,4.47
2023-05-15T19:59:57.177Z,3.92
2023-05-15T20:02:25.223Z,4.55
2023-05-15T20:04:53.921Z,3.55
2023-05-15T20:07:21.917Z,2.72
2023-05-15T20:09:52.338Z,3.42
2023-05-15T20:12:23.982Z,3.70
2023-05-15T20:14:52.134Z,3.35
2023-05-15T20:17:20.533Z,3.72
2023-05-15T20:19:49.548Z,3.28
2023-05-15T20:22:18.321Z,3.20
2023-05-15T20:24:46.979Z,2.97
2023-05-15T20:27:14.864Z,3.63
2023-05-15T20:29:45.311Z,3.70
2023-05-15T20:32:13.754Z,3.65
2023-05-15T20:34:46.748Z,8.40
2023-05-15T20:37:14.971Z,6.70
2023-05-15T20:39:43.067Z,5.07
2023-05-15T20:42:11.648Z,4.13
2023-05-15T20:44:39.617Z,7.55
2023-05-15T20:47:08.886Z,9.38
2023-05-15T20:49:36.829Z,4.03
2023-05-15T20:52:05.341Z,3.40
2023-05-15T20:54:33.456Z,21.35
2023-05-15T20:57:01.327Z,21.10
2023-05-15T20:59:29.353Z,5.20
2023-05-15T21:01:57.301Z,3.75
2023-05-15T21:04:27.435Z,3.85
2023-05-15T21:06:56.349Z,4.13
2023-05-15T21:09:24.569Z,3.70
2023-05-15T21:11:52.506Z,4.20
2023-05-15T21:14:20.476Z,3.78
2023-05-15T21:16:48.558Z,3.22
2023-05-15T21:19:16.655Z,3.55
2023-05-15T21:21:46.330Z,3.08
2023-05-15T21:24:15.154Z,2.47
2023-05-15T21:26:43.228Z,3.15
2023-05-15T21:29:11.360Z,3.45
2023-05-15T21:31:39.472Z,3.25
2023-05-15T21:34:08.052Z,3.83
2023-05-15T21:36:36.126Z,4.45
2023-05-15T21:39:09.515Z,3.90
2023-05-15T21:41:37.436Z,2.60
2023-05-15T21:44:05.617Z,3.08
2023-05-15T21:46:33.551Z,3.10
2023-05-15T21:49:02.176Z,2.40
2023-05-15T21:51:30.108Z,3.10
2023-05-15T21:53:58.119Z,2.55
2023-05-15T21:56:27.476Z,2.35
2023-05-15T21:58:55.548Z,3.17
2023-05-15T22:01:23.444Z,2.88
2023-05-15T22:03:51.518Z,2.95
2023-05-15T22:06:19.627Z,2.90
2023-05-15T22:08:47.486Z,2.90
2023-05-15T22:11:15.486Z,2.80
2023-05-15T22:13:45.246Z,2.78
2023-05-15T22:16:13.321Z,3.20
2023-05-15T22:18:42.158Z,3.70
2023-05-15T22:21:10.209Z,2.88
2023-05-15T22:23:38.080Z,3.55
2023-05-15T22:26:05.981Z,3.58
2023-05-15T22:28:33.891Z,3.75
2023-05-15T22:31:03.334Z,8.52
2023-05-15T22:33:31.285Z,7.38
2023-05-15T22:35:59.160Z,16.13
2023-05-15T22:38:27.308Z,25.02
2023-05-15T22:40:55.653Z,4.80
2023-05-15T22:43:23.646Z,4.75
2023-05-15T22:45:52.419Z,4.60
2023-05-15T22:48:23.206Z,4.75
2023-05-15T22:50:52.282Z,4.97
2023-05-15T22:53:20.216Z,5.13
2023-05-15T22:55:48.208Z,4.68
2023-05-15T22:58:16.629Z,4.50
2023-05-15T23:00:44.604Z,4.80
2023-05-15T23:03:12.577Z,4.85
2023-05-15T23:05:42.198Z,5.13
2023-05-15T23:08:10.138Z,4.90
2023-05-15T23:10:38.239Z,4.18
2023-05-15T23:13:06.200Z,4.32
2023-05-15T23:15:34.320Z,5.15
2023-05-15T23:18:02.413Z,5.13
2023-05-15T23:20:30.611Z,4.50
2023-05-15T23:23:00.032Z,5.57
2023-05-15T23:25:27.908Z,5.25
2023-05-15T23:27:56.265Z,5.38
2023-05-15T23:30:24.368Z,4.95
2023-05-15T23:32:52.406Z,4.80
2023-05-15T23:35:20.592Z,5.10
2023-05-15T23:37:48.639Z,5.38
2023-05-15T23:40:18.144Z,4.90
2023-05-15T23:42:46.815Z,5.10
2023-05-15T23:45:22.684Z,4.40
2023-05-15T23:47:50.650Z,4.38
2023-05-15T23:50:18.724Z,4.55
2023-05-15T23:52:47.178Z,4.55
2023-05-15T23:55:15.146Z,4.50
2023-05-15T23:57:46.942Z,4.10
